Hlavní strana
METAR-TAF:

METAR-TAF

Letiště :

Cheraw, Jižní Karolína, Spojené státy americké

zeměpisná šířka: 34-42-46N, zeměpisná délka: 079-57-25W, výška: 73 m

Aktuální stav počasí

Zpráva byla vytvořena před 14 minutami, v 09:15 UTC
Bezvětří
Teplota 23°C
Vlhkost vzduchu 100%
Tlak 1018 hPa
Viditelnost: 14.5 km
Skoro jasno ve výšce 1200 ft
Polojasno ve výšce 3100 ft
Oblačno až skoro zataženo ve výšce 6000 ft
bouřka

METAR: KCQW 070915Z AUTO 00000KT 9SM TS FEW012 SCT031 BKN060 23/23 A3006 RMK AO2 LTG DSNT N AND E

Čas: 05:29 (09:29 UTC)


TAF: chybějící

Stav a předpovědi počasí z více než 4 000 letišť (zprávy METAR a TAF).

Červené a žluté tečky na mapě představují dostupné meteorologické stanice.

Když kurzor umístíte na tečku, zobrazí se název stanice.

Pak kliknutím zobrazíte stav a předpověď počasí.

Chcete-li změnit mapu, kliknutím na zelené tlačítko se znaménkem +mapu přiblížíte, kliknutím na zelené tlačítko se znaménkem – mapu oddálíte a kliknutím na zelené šipky přejdete na sousední mapy.


METAR-TAF: